Deep Creek, Idaho
Current Conditions -  °F | °C
As of 6:53 AM on Monday 24 Nov 2014 (Local Time) from KJER Reporting Station
Clear Clear  
Wind Chill: 19°   Ceiling: Unl
Heat Index: 30°   Visibility: 10mi
Dew Point: 25°   Wind: 15mph
Humidity: 82%   Direction: 250°WSW
Pressure: 30.29"   Gusts: NA
Location:  42.6472°N, 114.901°W
Report Text: KJER 241353Z AUTO 25013KT 10SM CLR M01/M04 A3029 RMK AO2 SLP279 T10111039
Loading
Personal Weather Stations






























Interactive Weather Map New forecast layout! Learn more

10-Day Weather Forecast

Advertisements
Track Severe Weather on mobile